Time;durP1;ratioP1;P1;durP2;ratioP2;P2;SDS_P1;SDS_P2;PMS_P1;PMS_P2;Temp;Humidity;BMP_temperature;BMP_pressure;BME280_temperature;BME280_humidity;BME280_pressure;Samples;Min_cycle;Max_cycle;Signal;HPM_P1;HPM_P2
2023/10/22 00:01:44;;;;;;;;;;;;;;;;;;5069733;28;20020;-52
2023/10/22 00:04:10;;;;;;;;;;;;;;;;;;5070833;28;19916;-52
2023/10/22 00:06:36;;;;;;;;;;;;;;;;;;5069288;28;20077;-52
2023/10/22 00:09:02;;;;;;;;;;;;;;;;;;5070055;28;19955;-52
2023/10/22 00:11:28;;;;;;;;;;;;;;;;;;5072562;28;19978;-52
2023/10/22 00:13:54;;;;;;;;;;;;;;;;;;5066985;28;20678;-52
2023/10/22 00:16:20;;;;;;;;;;;;;;;;;;5071676;28;20094;-52
2023/10/22 00:18:48;;;;;;;;;;;;;;;;;;5069785;28;19969;-52
2023/10/22 00:21:14;;;;;;;;;;;;;;;;;;5072555;28;19912;-51
2023/10/22 00:23:40;;;;;;;;;;;;;;;;;;5070668;28;20019;-52
2023/10/22 00:26:06;;;;;;;;;;;;;;;;;;5075647;28;19951;-52
2023/10/22 00:28:32;;;;;;;;;;;;;;;;;;5070039;28;19963;-52
2023/10/22 00:30:58;;;;;;;;;;;;;;;;;;5068325;28;19978;-52
2023/10/22 00:33:24;;;;;;;;;;;;;;;;;;5083627;28;19938;-52
2023/10/22 00:35:50;;;;;;;;;;;;;;;;;;5072189;28;19912;-51
2023/10/22 00:38:16;;;;;;;;;;;;;;;;;;5067378;28;20009;-52
2023/10/22 00:40:42;;;;;;;;;;;;;;;;;;5063517;28;20305;-52
2023/10/22 00:43:08;;;;;;;;;;;;;;;;;;5063080;28;20031;-52
2023/10/22 00:45:34;;;;;;;;;;;;;;;;;;5061907;28;19919;-52
2023/10/22 00:48:00;;;;;;;;;;;;;;;;;;5060084;28;20273;-51
2023/10/22 00:50:26;;;;;;;;;;;;;;;;;;5071224;28;20004;-52
2023/10/22 00:52:52;;;;;;;;;;;;;;;;;;5065414;28;20020;-51
2023/10/22 00:55:18;;;;;;;;;;;;;;;;;;5068703;28;19992;-50
2023/10/22 00:57:44;;;;;;;;;;;;;;;;;;5069268;28;19916;-50
2023/10/22 01:00:10;;;;;;;;;;;;;;;;;;5065758;28;20316;-51
2023/10/22 01:02:36;;;;;;;;;;;;;;;;;;5066090;28;19939;-50
2023/10/22 01:05:02;;;;;;;;;;;;;;;;;;5086306;28;19994;-50
2023/10/22 01:07:30;;;;;;;;;;;;;;;;;;5068631;28;19939;-50
2023/10/22 01:09:56;;;;;;;;;;;;;;;;;;5075088;28;20652;-53
2023/10/22 01:12:22;;;;;;;;;;;;;;;;;;5070032;28;20213;-55
2023/10/22 01:14:48;;;;;;;;;;;;;;;;;;5073874;28;20458;-51
2023/10/22 01:17:14;;;;;;;;;;;;;;;;;;5067502;28;19962;-50
2023/10/22 01:19:40;;;;;;;;;;;;;;;;;;5069272;28;19935;-50
2023/10/22 01:22:06;;;;;;;;;;;;;;;;;;5067529;28;19912;-50
2023/10/22 01:24:32;;;;;;;;;;;;;;;;;;5067834;28;20328;-50
2023/10/22 01:26:59;;;;;;;;;;;;;;;;;;5070273;28;19913;-51
2023/10/22 01:29:25;;;;;;;;;;;;;;;;;;5068241;28;20017;-51
2023/10/22 01:31:51;;;;;;;;;;;;;;;;;;5065860;28;20081;-50
2023/10/22 01:34:17;;;;;;;;;;;;;;;;;;5067454;28;19967;-50
2023/10/22 01:36:45;;;;;;;;;;;;;;;;;;5054858;28;19909;-50
2023/10/22 01:39:14;;;;;;;;;;;;;;;;;;5072983;28;20367;-50
2023/10/22 01:41:41;;;;;;;;;;;;;;;;;;5060556;28;20002;-51
2023/10/22 01:44:07;;;;;;;;;;;;;;;;;;5075412;28;20379;-50
2023/10/22 01:46:33;;;;;;;;;;;;;;;;;;5067563;28;19966;-50
2023/10/22 01:48:59;;;;;;;;;;;;;;;;;;5068481;28;20376;-50
2023/10/22 01:51:25;;;;;;;;;;;;;;;;;;5065860;28;20367;-51
2023/10/22 01:53:51;;;;;;;;;;;;;;;;;;5066226;28;19912;-51
2023/10/22 01:56:17;;;;;;;;;;;;;;;;;;5068985;28;19913;-50
2023/10/22 01:58:43;;;;;;;;;;;;;;;;;;5067202;28;20372;-51
2023/10/22 02:01:09;;;;;;;;;;;;;;;;;;5065613;28;20337;-50
2023/10/22 02:03:35;;;;;;;;;;;;;;;;;;5067799;28;22240;-51
2023/10/22 02:06:01;;;;;;;;;;;;;;;;;;5067594;28;19912;-50
2023/10/22 02:08:27;;;;;;;;;;;;;;;;;;5067460;28;20367;-51
2023/10/22 02:10:53;;;;;;;;;;;;;;;;;;5058857;28;19923;-51
2023/10/22 02:13:19;;;;;;;;;;;;;;;;;;5068432;28;20012;-51
2023/10/22 02:15:45;;;;;;;;;;;;;;;;;;5066238;28;20435;-51
2023/10/22 02:18:11;;;;;;;;;;;;;;;;;;5066858;28;19987;-50
2023/10/22 02:20:37;;;;;;;;;;;;;;;;;;5062130;28;19951;-51
2023/10/22 02:23:05;;;;;;;;;;;;;;;;;;5063847;28;20252;-50
2023/10/22 02:25:31;;;;;;;;;;;;;;;;;;5069677;28;20367;-50
2023/10/22 02:27:57;;;;;;;;;;;;;;;;;;5071078;28;19954;-51
2023/10/22 02:30:23;;;;;;;;;;;;;;;;;;5066781;28;19916;-50
2023/10/22 02:32:49;;;;;;;;;;;;;;;;;;5067429;28;19951;-51
2023/10/22 02:35:15;;;;;;;;;;;;;;;;;;5066222;28;20336;-51
2023/10/22 02:37:41;;;;;;;;;;;;;;;;;;5066257;28;19980;-51
2023/10/22 02:40:09;;;;;;;;;;;;;;;;;;5068359;28;19917;-51
2023/10/22 02:42:35;;;;;;;;;;;;;;;;;;5067980;28;20018;-51
2023/10/22 02:45:01;;;;;;;;;;;;;;;;;;5065828;28;19916;-50
2023/10/22 02:47:27;;;;;;;;;;;;;;;;;;5057532;28;19919;-51
2023/10/22 02:49:54;;;;;;;;;;;;;;;;;;5062356;28;20035;-50
2023/10/22 02:52:20;;;;;;;;;;;;;;;;;;5067938;28;19948;-51
2023/10/22 02:54:46;;;;;;;;;;;;;;;;;;5055950;28;19912;-51
2023/10/22 02:57:12;;;;;;;;;;;;;;;;;;5065963;28;19908;-50
2023/10/22 02:59:39;;;;;;;;;;;;;;;;;;5073871;28;19952;-50
2023/10/22 03:02:05;;;;;;;;;;;;;;;;;;5065307;28;20016;-50
2023/10/22 03:04:31;;;;;;;;;;;;;;;;;;5071308;28;19957;-51
2023/10/22 03:06:57;;;;;;;;;;;;;;;;;;5069972;28;19965;-51
2023/10/22 03:09:23;;;;;;;;;;;;;;;;;;5072292;28;20428;-51
2023/10/22 03:11:49;;;;;;;;;;;;;;;;;;5070061;28;19954;-50
2023/10/22 03:14:20;;;;;;;;;;;;;;;;;;5068891;28;20375;-51
2023/10/22 03:16:46;;;;;;;;;;;;;;;;;;5068635;28;19908;-51
2023/10/22 03:19:12;;;;;;;;;;;;;;;;;;5070358;28;19909;-51
2023/10/22 03:21:37;;;;;;;;;;;;;;;;;;5073394;28;20398;-51
2023/10/22 03:24:04;;;;;;;;;;;;;;;;;;5071472;28;19948;-52
2023/10/22 03:26:30;;;;;;;;;;;;;;;;;;5073909;28;19908;-51
2023/10/22 03:28:56;;;;;;;;;;;;;;;;;;5071855;28;19916;-51
2023/10/22 03:31:22;;;;;;;;;;;;;;;;;;5068905;28;19969;-51
2023/10/22 03:33:48;;;;;;;;;;;;;;;;;;5069958;28;19908;-51
2023/10/22 03:36:15;;;;;;;;;;;;;;;;;;5069374;28;19923;-51
2023/10/22 03:38:41;;;;;;;;;;;;;;;;;;5069219;28;19908;-51
2023/10/22 03:41:07;;;;;;;;;;;;;;;;;;5070114;28;19947;-51
2023/10/22 03:43:34;;;;;;;;;;;;;;;;;;5070814;28;19946;-51
2023/10/22 03:46:01;;;;;;;;;;;;;;;;;;5068416;28;19966;-51
2023/10/22 03:48:27;;;;;;;;;;;;;;;;;;5069934;28;19912;-51
2023/10/22 03:50:53;;;;;;;;;;;;;;;;;;5069375;28;20002;-51
2023/10/22 03:53:19;;;;;;;;;;;;;;;;;;5069889;28;20037;-51
2023/10/22 03:55:45;;;;;;;;;;;;;;;;;;5068142;28;19966;-51
2023/10/22 03:58:11;;;;;;;;;;;;;;;;;;5066112;28;19984;-51
2023/10/22 04:00:37;;;;;;;;;;;;;;;;;;5066358;28;19946;-51
2023/10/22 04:03:04;;;;;;;;;;;;;;;;;;5069835;28;19931;-51
2023/10/22 04:05:30;;;;;;;;;;;;;;;;;;5068341;28;19935;-51
2023/10/22 04:07:56;;;;;;;;;;;;;;;;;;5069293;28;19919;-51
2023/10/22 04:10:22;;;;;;;;;;;;;;;;;;5068813;28;20329;-51
2023/10/22 04:12:48;;;;;;;;;;;;;;;;;;5063239;28;19909;-51
2023/10/22 04:15:14;;;;;;;;;;;;;;;;;;5066625;28;19912;-51
2023/10/22 04:17:40;;;;;;;;;;;;;;;;;;5062232;28;19961;-52
2023/10/22 04:20:06;;;;;;;;;;;;;;;;;;5064168;28;20005;-51
2023/10/22 04:22:32;;;;;;;;;;;;;;;;;;5068638;28;19952;-52
2023/10/22 04:24:58;;;;;;;;;;;;;;;;;;5069432;28;19935;-52
2023/10/22 04:27:24;;;;;;;;;;;;;;;;;;5069604;28;20026;-52
2023/10/22 04:29:52;;;;;;;;;;;;;;;;;;5071509;28;19916;-51
2023/10/22 04:32:21;;;;;;;;;;;;;;;;;;5070160;28;20023;-51
2023/10/22 04:34:47;;;;;;;;;;;;;;;;;;5067513;28;20375;-51
2023/10/22 04:37:13;;;;;;;;;;;;;;;;;;5068308;28;19966;-51
2023/10/22 04:39:39;;;;;;;;;;;;;;;;;;5069112;28;19952;-52
2023/10/22 04:42:05;;;;;;;;;;;;;;;;;;5068182;28;20014;-51
2023/10/22 04:44:31;;;;;;;;;;;;;;;;;;5068927;28;19952;-51
2023/10/22 04:46:57;;;;;;;;;;;;;;;;;;5066400;28;19915;-52
2023/10/22 04:49:24;;;;;;;;;;;;;;;;;;5068560;28;19955;-51
2023/10/22 04:51:50;;;;;;;;;;;;;;;;;;5067039;28;20412;-52
2023/10/22 04:54:16;;;;;;;;;;;;;;;;;;5069346;28;20002;-51
2023/10/22 04:56:42;;;;;;;;;;;;;;;;;;5067287;28;19935;-52
2023/10/22 04:59:07;;;;;;;;;;;;;;;;;;5069281;28;19947;-52
2023/10/22 05:01:33;;;;;;;;;;;;;;;;;;5065725;28;19974;-51
2023/10/22 05:03:59;;;;;;;;;;;;;;;;;;5068610;28;19990;-52
2023/10/22 05:06:25;;;;;;;;;;;;;;;;;;5066748;28;20332;-52
2023/10/22 05:08:51;;;;;;;;;;;;;;;;;;5069139;28;20351;-51
2023/10/22 05:11:17;;;;;;;;;;;;;;;;;;5068242;28;19977;-51
2023/10/22 05:13:43;;;;;;;;;;;;;;;;;;5067310;28;20428;-52
2023/10/22 05:16:10;;;;;;;;;;;;;;;;;;5064647;28;20014;-52
2023/10/22 05:18:36;;;;;;;;;;;;;;;;;;5068159;28;19918;-52
2023/10/22 05:21:04;;;;;;;;;;;;;;;;;;5062291;28;19926;-52
2023/10/22 05:23:30;;;;;;;;;;;;;;;;;;5067868;28;19913;-51
2023/10/22 05:25:56;;;;;;;;;;;;;;;;;;5061448;28;19986;-51
2023/10/22 05:28:22;;;;;;;;;;;;;;;;;;5060647;28;20121;-51
2023/10/22 05:30:49;;;;;;;;;;;;;;;;;;5060986;28;20069;-51
2023/10/22 05:33:15;;;;;;;;;;;;;;;;;;5059393;28;20312;-51
2023/10/22 05:35:41;;;;;;;;;;;;;;;;;;5064712;28;20001;-51
2023/10/22 05:38:07;;;;;;;;;;;;;;;;;;5067306;28;19936;-51
2023/10/22 05:40:33;;;;;;;;;;;;;;;;;;5072946;28;19995;-51
2023/10/22 05:42:59;;;;;;;;;;;;;;;;;;5066839;28;20006;-51
2023/10/22 05:45:25;;;;;;;;;;;;;;;;;;5067559;28;19920;-51
2023/10/22 05:47:51;;;;;;;;;;;;;;;;;;5065989;28;20011;-51
2023/10/22 05:50:17;;;;;;;;;;;;;;;;;;5059768;28;19912;-51
2023/10/22 05:52:43;;;;;;;;;;;;;;;;;;5058814;28;20749;-51
2023/10/22 05:55:09;;;;;;;;;;;;;;;;;;5060252;28;20309;-52
2023/10/22 05:57:35;;;;;;;;;;;;;;;;;;5059813;28;20423;-52
2023/10/22 06:00:01;;;;;;;;;;;;;;;;;;5061400;28;20015;-51
2023/10/22 06:02:27;;;;;;;;;;;;;;;;;;5065773;28;20020;-51
2023/10/22 06:04:53;;;;;;;;;;;;;;;;;;5059681;28;20011;-51
2023/10/22 06:07:19;;;;;;;;;;;;;;;;;;5059044;28;20003;-51
2023/10/22 06:09:45;;;;;;;;;;;;;;;;;;5060295;28;20412;-51
2023/10/22 06:12:11;;;;;;;;;;;;;;;;;;5060149;28;19944;-51
2023/10/22 06:14:37;;;;;;;;;;;;;;;;;;5057920;28;20452;-51
2023/10/22 06:17:04;;;;;;;;;;;;;;;;;;5059695;28;20030;-51
2023/10/22 06:19:30;;;;;;;;;;;;;;;;;;5064494;28;20264;-51
2023/10/22 06:21:56;;;;;;;;;;;;;;;;;;5056853;28;19912;-51
2023/10/22 06:24:22;;;;;;;;;;;;;;;;;;5058277;28;19946;-52
2023/10/22 06:26:48;;;;;;;;;;;;;;;;;;5059993;28;21336;-51
2023/10/22 06:29:14;;;;;;;;;;;;;;;;;;5058558;28;19923;-51
2023/10/22 06:31:40;;;;;;;;;;;;;;;;;;5058225;28;19920;-51
2023/10/22 06:34:06;;;;;;;;;;;;;;;;;;5061179;28;19912;-51
2023/10/22 06:36:32;;;;;;;;;;;;;;;;;;5057658;28;19993;-52
2023/10/22 06:38:59;;;;;;;;;;;;;;;;;;5059884;28;19916;-51
2023/10/22 06:41:25;;;;;;;;;;;;;;;;;;5059704;28;19953;-51
2023/10/22 06:43:52;;;;;;;;;;;;;;;;;;5059014;28;19923;-51
2023/10/22 06:46:18;;;;;;;;;;;;;;;;;;5060560;28;19912;-52
2023/10/22 06:48:44;;;;;;;;;;;;;;;;;;5066256;28;19955;-51
2023/10/22 06:51:10;;;;;;;;;;;;;;;;;;5058459;28;20287;-51
2023/10/22 06:53:37;;;;;;;;;;;;;;;;;;5058204;28;20279;-51
2023/10/22 06:56:03;;;;;;;;;;;;;;;;;;5057974;28;19908;-52
2023/10/22 06:58:29;;;;;;;;;;;;;;;;;;5058624;28;20008;-51
2023/10/22 07:00:56;;;;;;;;;;;;;;;;;;5057363;28;19916;-53
2023/10/22 07:03:22;;;;;;;;;;;;;;;;;;5060831;28;20016;-51
2023/10/22 07:05:48;;;;;;;;;;;;;;;;;;5063246;28;19951;-51
2023/10/22 07:08:15;;;;;;;;;;;;;;;;;;5059793;28;20407;-51
2023/10/22 07:10:42;;;;;;;;;;;;;;;;;;5058444;28;19928;-51
2023/10/22 07:13:08;;;;;;;;;;;;;;;;;;5058114;28;20002;-51
2023/10/22 07:15:34;;;;;;;;;;;;;;;;;;5058587;28;19982;-52
2023/10/22 07:18:00;;;;;;;;;;;;;;;;;;5057884;28;19912;-52
2023/10/22 07:20:26;;;;;;;;;;;;;;;;;;5058552;28;19955;-51
2023/10/22 07:22:52;;;;;;;;;;;;;;;;;;5058178;28;19912;-51
2023/10/22 07:25:19;;;;;;;;;;;;;;;;;;5060830;28;20019;-51
2023/10/22 07:27:45;;;;;;;;;;;;;;;;;;5060050;28;19912;-51
2023/10/22 07:30:11;;;;;;;;;;;;;;;;;;5058718;28;19917;-51
2023/10/22 07:32:37;;;;;;;;;;;;;;;;;;5058670;28;19927;-52
2023/10/22 07:35:03;;;;;;;;;;;;;;;;;;5062915;28;20143;-51
2023/10/22 07:37:29;;;;;;;;;;;;;;;;;;5057614;28;19922;-53
2023/10/22 07:39:55;;;;;;;;;;;;;;;;;;5057454;28;20291;-51
2023/10/22 07:42:21;;;;;;;;;;;;;;;;;;5060287;28;19916;-51
2023/10/22 07:44:47;;;;;;;;;;;;;;;;;;5057930;28;20339;-52
2023/10/22 07:47:14;;;;;;;;;;;;;;;;;;5056447;28;19933;-51
2023/10/22 07:49:40;;;;;;;;;;;;;;;;;;5062773;28;19920;-51
2023/10/22 07:52:06;;;;;;;;;;;;;;;;;;5066367;28;19916;-51
2023/10/22 07:54:33;;;;;;;;;;;;;;;;;;5062726;28;19916;-51
2023/10/22 07:56:59;;;;;;;;;;;;;;;;;;5061610;28;20326;-51
2023/10/22 07:59:25;;;;;;;;;;;;;;;;;;5061759;28;20336;-52
2023/10/22 08:01:51;;;;;;;;;;;;;;;;;;5061728;28;19908;-51
2023/10/22 08:04:18;;;;;;;;;;;;;;;;;;5062657;28;19923;-51
2023/10/22 08:06:44;;;;;;;;;;;;;;;;;;5071495;28;20296;-52
2023/10/22 08:09:10;;;;;;;;;;;;;;;;;;5058658;28;20313;-51
2023/10/22 08:11:36;;;;;;;;;;;;;;;;;;5065742;28;20127;-52
2023/10/22 08:14:02;;;;;;;;;;;;;;;;;;5066713;28;20283;-51
2023/10/22 08:16:29;;;;;;;;;;;;;;;;;;5067201;28;19912;-52
2023/10/22 08:18:55;;;;;;;;;;;;;;;;;;5066920;28;19919;-51
2023/10/22 08:21:22;;;;;;;;;;;;;;;;;;5065399;28;19932;-52
2023/10/22 08:23:48;;;;;;;;;;;;;;;;;;5072825;28;19984;-52
2023/10/22 08:26:14;;;;;;;;;;;;;;;;;;5066416;28;19912;-52
2023/10/22 08:28:41;;;;;;;;;;;;;;;;;;5068311;28;19912;-52
2023/10/22 08:31:07;;;;;;;;;;;;;;;;;;5066311;28;19966;-53
2023/10/22 08:33:33;;;;;;;;;;;;;;;;;;5064614;28;20257;-52
2023/10/22 08:35:59;;;;;;;;;;;;;;;;;;5066134;28;19938;-52
2023/10/22 08:38:25;;;;;;;;;;;;;;;;;;5063179;28;19912;-53
2023/10/22 08:40:52;;;;;;;;;;;;;;;;;;5067489;28;19909;-52
2023/10/22 08:43:18;;;;;;;;;;;;;;;;;;5064754;28;19917;-52
2023/10/22 08:45:49;;;;;;;;;;;;;;;;;;5067003;28;20371;-52
2023/10/22 08:48:15;;;;;;;;;;;;;;;;;;5065832;28;19944;-52
2023/10/22 08:50:41;;;;;;;;;;;;;;;;;;5066011;28;19913;-52
2023/10/22 08:53:07;;;;;;;;;;;;;;;;;;5061079;28;19912;-52
2023/10/22 08:55:35;;;;;;;;;;;;;;;;;;5061239;28;20130;-52
2023/10/22 08:58:01;;;;;;;;;;;;;;;;;;5064653;28;20336;-52
2023/10/22 09:00:27;;;;;;;;;;;;;;;;;;5062650;28;20236;-52
2023/10/22 09:02:53;;;;;;;;;;;;;;;;;;5066871;28;20012;-52
2023/10/22 09:05:19;;;;;;;;;;;;;;;;;;5066721;28;20019;-52
2023/10/22 09:07:45;;;;;;;;;;;;;;;;;;5064971;28;19916;-52
2023/10/22 09:10:11;;;;;;;;;;;;;;;;;;5063761;28;19936;-52
2023/10/22 09:12:37;;;;;;;;;;;;;;;;;;5068114;28;19951;-53
2023/10/22 09:15:03;;;;;;;;;;;;;;;;;;5068112;28;19943;-52
2023/10/22 09:17:30;;;;;;;;;;;;;;;;;;5067641;28;19955;-52
2023/10/22 09:19:56;;;;;;;;;;;;;;;;;;5060540;28;19916;-52
2023/10/22 09:22:22;;;;;;;;;;;;;;;;;;5067190;28;19967;-52
2023/10/22 09:24:49;;;;;;;;;;;;;;;;;;5062301;28;19912;-52
2023/10/22 09:27:15;;;;;;;;;;;;;;;;;;5062954;28;19912;-52
2023/10/22 09:29:41;;;;;;;;;;;;;;;;;;5065312;28;20280;-52
2023/10/22 09:32:08;;;;;;;;;;;;;;;;;;5063333;28;19916;-53
2023/10/22 09:34:37;;;;;;;;;;;;;;;;;;5065031;28;20241;-53
2023/10/22 09:37:03;;;;;;;;;;;;;;;;;;5067964;28;19936;-52
2023/10/22 09:39:29;;;;;;;;;;;;;;;;;;5068027;28;20007;-52
2023/10/22 09:41:55;;;;;;;;;;;;;;;;;;5064678;28;20065;-53
2023/10/22 09:44:21;;;;;;;;;;;;;;;;;;5062588;28;20427;-52
2023/10/22 09:46:47;;;;;;;;;;;;;;;;;;5066859;28;20015;-52
2023/10/22 09:49:13;;;;;;;;;;;;;;;;;;5062443;28;19952;-53
2023/10/22 09:51:39;;;;;;;;;;;;;;;;;;5067261;28;19923;-52
2023/10/22 09:54:05;;;;;;;;;;;;;;;;;;5062492;28;19912;-52
2023/10/22 09:56:32;;;;;;;;;;;;;;;;;;5067511;28;19951;-53
2023/10/22 09:58:58;;;;;;;;;;;;;;;;;;5072440;28;19916;-53
2023/10/22 10:01:27;;;;;;;;;;;;;;;;;;5067600;28;20506;-53
2023/10/22 10:03:53;;;;;;;;;;;;;;;;;;5066708;28;19966;-53
2023/10/22 10:06:19;;;;;;;;;;;;;;;;;;5065951;28;19917;-53
2023/10/22 10:08:45;;;;;;;;;;;;;;;;;;5068995;28;20266;-53
2023/10/22 10:11:11;;;;;;;;;;;;;;;;;;5064847;28;19920;-53
2023/10/22 10:13:37;;;;;;;;;;;;;;;;;;5065197;28;19917;-53
2023/10/22 10:16:03;;;;;;;;;;;;;;;;;;5067152;28;20009;-53
2023/10/22 10:18:29;;;;;;;;;;;;;;;;;;5067218;28;19939;-53
2023/10/22 10:20:56;;;;;;;;;;;;;;;;;;5061471;28;20276;-53
2023/10/22 10:23:23;;;;;;;;;;;;;;;;;;5067342;28;19916;-52
2023/10/22 10:25:49;;;;;;;;;;;;;;;;;;5066070;28;19919;-53
2023/10/22 10:28:16;;;;;;;;;;;;;;;;;;5066167;28;19944;-53
2023/10/22 10:30:42;;;;;;;;;;;;;;;;;;5066756;28;20372;-53
2023/10/22 10:33:09;;;;;;;;;;;;;;;;;;5067072;28;20052;-53
2023/10/22 10:35:39;;;;;;;;;;;;;;;;;;5068752;28;20532;-53
2023/10/22 10:38:05;;;;;;;;;;;;;;;;;;5074518;28;19915;-53
2023/10/22 10:40:31;;;;;;;;;;;;;;;;;;5068208;28;19917;-53
2023/10/22 10:42:57;;;;;;;;;;;;;;;;;;5062646;28;19958;-54
2023/10/22 10:45:23;;;;;;;;;;;;;;;;;;5065250;28;19958;-53
2023/10/22 10:47:49;;;;;;;;;;;;;;;;;;5062781;28;19912;-53
2023/10/22 10:50:15;;;;;;;;;;;;;;;;;;5063570;28;19916;-54
2023/10/22 10:52:41;;;;;;;;;;;;;;;;;;5073243;28;20347;-54
2023/10/22 10:55:07;;;;;;;;;;;;;;;;;;5067531;28;19947;-53
2023/10/22 10:57:33;;;;;;;;;;;;;;;;;;5069430;28;19995;-54
2023/10/22 10:59:59;;;;;;;;;;;;;;;;;;5072580;28;20398;-53
2023/10/22 11:02:28;;;;;;;;;;;;;;;;;;5066266;28;19916;-53
2023/10/22 11:04:54;;;;;;;;;;;;;;;;;;5064611;28;19924;-53
2023/10/22 11:07:21;;;;;;;;;;;;;;;;;;5063324;28;19914;-53
2023/10/22 11:09:47;;;;;;;;;;;;;;;;;;5067780;28;19939;-55
2023/10/22 11:12:13;;;;;;;;;;;;;;;;;;5072816;28;19917;-54
2023/10/22 11:14:40;;;;;;;;;;;;;;;;;;5065799;28;19920;-55
2023/10/22 11:17:06;;;;;;;;;;;;;;;;;;5067264;28;19915;-55
2023/10/22 11:19:33;;;;;;;;;;;;;;;;;;5064971;28;20016;-55
2023/10/22 11:21:59;;;;;;;;;;;;;;;;;;5066813;28;19919;-55
2023/10/22 11:24:25;;;;;;;;;;;;;;;;;;5070119;28;19916;-55
2023/10/22 11:26:51;;;;;;;;;;;;;;;;;;5067688;28;19908;-56
2023/10/22 11:29:17;;;;;;;;;;;;;;;;;;5072115;28;19912;-55
2023/10/22 11:31:43;;;;;;;;;;;;;;;;;;5068474;28;19920;-55
2023/10/22 11:34:09;;;;;;;;;;;;;;;;;;5072164;28;19915;-55
2023/10/22 11:36:36;;;;;;;;;;;;;;;;;;5069050;28;20341;-55
2023/10/22 11:39:02;;;;;;;;;;;;;;;;;;5069472;28;19912;-55
2023/10/22 11:41:29;;;;;;;;;;;;;;;;;;5069664;28;19919;-55
2023/10/22 11:43:56;;;;;;;;;;;;;;;;;;5069933;28;19912;-55
2023/10/22 11:46:22;;;;;;;;;;;;;;;;;;5070633;28;19912;-54
2023/10/22 11:48:48;;;;;;;;;;;;;;;;;;5064426;28;19912;-55
2023/10/22 11:51:16;;;;;;;;;;;;;;;;;;5068688;28;19931;-54
2023/10/22 11:53:42;;;;;;;;;;;;;;;;;;5070948;28;20370;-55
2023/10/22 11:56:08;;;;;;;;;;;;;;;;;;5070812;28;19947;-53
2023/10/22 11:58:34;;;;;;;;;;;;;;;;;;5070971;28;19937;-54
2023/10/22 12:01:02;;;;;;;;;;;;;;;;;;5069245;28;19909;-54
2023/10/22 12:03:28;;;;;;;;;;;;;;;;;;5070428;28;19935;-54
2023/10/22 12:05:54;;;;;;;;;;;;;;;;;;5066659;28;19923;-54
2023/10/22 12:08:20;;;;;;;;;;;;;;;;;;5067752;28;19908;-54
2023/10/22 12:10:46;;;;;;;;;;;;;;;;;;5069604;28;19935;-54
2023/10/22 12:13:12;;;;;;;;;;;;;;;;;;5070911;28;20392;-54
2023/10/22 12:15:38;;;;;;;;;;;;;;;;;;5068361;28;20197;-54
2023/10/22 12:18:05;;;;;;;;;;;;;;;;;;5068935;28;20335;-54
2023/10/22 12:20:31;;;;;;;;;;;;;;;;;;5068718;28;19916;-53
2023/10/22 12:22:59;;;;;;;;;;;;;;;;;;5068954;28;19953;-53
2023/10/22 12:25:26;;;;;;;;;;;;;;;;;;5069102;28;19982;-53
2023/10/22 12:27:52;;;;;;;;;;;;;;;;;;5064497;28;20082;-53
2023/10/22 12:30:18;;;;;;;;;;;;;;;;;;5068421;28;19920;-52
2023/10/22 12:32:44;;;;;;;;;;;;;;;;;;5066829;28;19959;-54
2023/10/22 12:35:12;;;;;;;;;;;;;;;;;;5066199;28;19981;-54
2023/10/22 12:37:39;;;;;;;;;;;;;;;;;;5068671;28;19916;-53
2023/10/22 12:40:05;;;;;;;;;;;;;;;;;;5069116;28;19916;-53
2023/10/22 12:42:31;;;;;;;;;;;;;;;;;;5069155;28;19962;-56
2023/10/22 12:44:57;;;;;;;;;;;;;;;;;;5068280;28;20010;-53
2023/10/22 12:47:23;;;;;;;;;;;;;;;;;;5064556;28;19919;-53
2023/10/22 12:49:50;;;;;;;;;;;;;;;;;;5070111;28;19912;-53
2023/10/22 12:52:16;;;;;;;;;;;;;;;;;;5060616;28;20419;-53
2023/10/22 12:54:43;;;;;;;;;;;;;;;;;;5068146;28;19917;-53
2023/10/22 12:57:10;;;;;;;;;;;;;;;;;;5065602;28;19981;-53
2023/10/22 12:59:36;;;;;;;;;;;;;;;;;;5067776;28;20110;-54
2023/10/22 13:02:03;;;;;;;;;;;;;;;;;;5065648;28;19955;-53
2023/10/22 13:04:29;;;;;;;;;;;;;;;;;;5063076;28;19999;-54
2023/10/22 13:06:55;;;;;;;;;;;;;;;;;;5064470;28;19963;-53
2023/10/22 13:09:22;;;;;;;;;;;;;;;;;;5068296;28;19908;-53
2023/10/22 13:11:48;;;;;;;;;;;;;;;;;;5065733;28;20011;-53
2023/10/22 13:14:14;;;;;;;;;;;;;;;;;;5067215;28;19912;-52
2023/10/22 13:16:40;;;;;;;;;;;;;;;;;;5068324;28;19909;-52
2023/10/22 13:19:06;;;;;;;;;;;;;;;;;;5067985;28;20251;-53
2023/10/22 13:21:33;;;;;;;;;;;;;;;;;;5068499;28;20355;-53
2023/10/22 13:23:59;;;;;;;;;;;;;;;;;;5068405;28;19920;-52
2023/10/22 13:26:25;;;;;;;;;;;;;;;;;;5058224;28;20356;-53
2023/10/22 13:28:54;;;;;;;;;;;;;;;;;;5065912;28;19919;-53
2023/10/22 13:31:20;;;;;;;;;;;;;;;;;;5065023;28;19916;-53
2023/10/22 13:33:46;;;;;;;;;;;;;;;;;;5066964;28;19932;-53
2023/10/22 13:36:12;;;;;;;;;;;;;;;;;;5066758;28;19915;-53
2023/10/22 13:38:39;;;;;;;;;;;;;;;;;;5060888;28;20030;-53
2023/10/22 13:41:05;;;;;;;;;;;;;;;;;;5062827;28;19916;-54
2023/10/22 13:43:31;;;;;;;;;;;;;;;;;;5066311;28;19965;-55
2023/10/22 13:45:58;;;;;;;;;;;;;;;;;;5063986;28;20007;-53
2023/10/22 13:48:24;;;;;;;;;;;;;;;;;;5067926;28;19923;-53
2023/10/22 13:50:51;;;;;;;;;;;;;;;;;;5063743;28;19908;-53
2023/10/22 13:53:17;;;;;;;;;;;;;;;;;;5068920;28;19950;-53
2023/10/22 13:55:43;;;;;;;;;;;;;;;;;;5066827;28;19908;-53
2023/10/22 13:58:09;;;;;;;;;;;;;;;;;;5065699;28;19920;-53
2023/10/22 14:00:35;;;;;;;;;;;;;;;;;;5077310;28;19976;-53
2023/10/22 14:03:02;;;;;;;;;;;;;;;;;;5064121;28;19923;-55
2023/10/22 14:05:28;;;;;;;;;;;;;;;;;;5065277;28;19919;-54
2023/10/22 14:07:54;;;;;;;;;;;;;;;;;;5067543;28;20335;-54
2023/10/22 14:10:20;;;;;;;;;;;;;;;;;;5069695;28;20007;-54
2023/10/22 14:12:46;;;;;;;;;;;;;;;;;;5070573;28;19935;-54
2023/10/22 14:15:12;;;;;;;;;;;;;;;;;;5067278;28;20350;-53
2023/10/22 14:17:38;;;;;;;;;;;;;;;;;;5068817;28;19948;-52
2023/10/22 14:20:04;;;;;;;;;;;;;;;;;;5065277;28;19916;-53
2023/10/22 14:22:31;;;;;;;;;;;;;;;;;;5061624;28;19934;-53
2023/10/22 14:24:57;;;;;;;;;;;;;;;;;;5065211;28;19916;-52
2023/10/22 14:27:23;;;;;;;;;;;;;;;;;;5066453;28;20382;-53
2023/10/22 14:29:49;;;;;;;;;;;;;;;;;;5066264;28;19998;-53
2023/10/22 14:32:16;;;;;;;;;;;;;;;;;;5067013;28;20049;-53
2023/10/22 14:34:42;;;;;;;;;;;;;;;;;;5067486;28;19909;-53
2023/10/22 14:37:08;;;;;;;;;;;;;;;;;;5066739;28;19912;-53
2023/10/22 14:39:34;;;;;;;;;;;;;;;;;;5066612;28;19913;-53
2023/10/22 14:42:00;;;;;;;;;;;;;;;;;;5067654;28;19912;-53
2023/10/22 14:44:26;;;;;;;;;;;;;;;;;;5066623;28;19923;-52
2023/10/22 14:46:52;;;;;;;;;;;;;;;;;;5067314;28;20360;-51
2023/10/22 14:49:18;;;;;;;;;;;;;;;;;;5067372;28;19919;-51
2023/10/22 14:51:44;;;;;;;;;;;;;;;;;;5057959;28;20366;-51
2023/10/22 14:54:10;;;;;;;;;;;;;;;;;;5067865;28;19913;-52
2023/10/22 14:56:37;;;;;;;;;;;;;;;;;;5066940;28;20385;-52
2023/10/22 14:59:03;;;;;;;;;;;;;;;;;;5065885;28;19951;-53
2023/10/22 15:01:29;;;;;;;;;;;;;;;;;;5066407;28;20319;-57
2023/10/22 15:03:55;;;;;;;;;;;;;;;;;;5066890;28;19921;-52
2023/10/22 15:06:21;;;;;;;;;;;;;;;;;;5065241;28;19977;-53
2023/10/22 15:08:47;;;;;;;;;;;;;;;;;;5063017;28;19908;-53
2023/10/22 15:11:19;;;;;;;;;;;;;;;;;;5066546;28;19955;-53
2023/10/22 15:13:45;;;;;;;;;;;;;;;;;;5065880;28;19908;-52
2023/10/22 15:16:12;;;;;;;;;;;;;;;;;;5066008;28;19913;-53
2023/10/22 15:18:38;;;;;;;;;;;;;;;;;;5067574;28;19962;-53
2023/10/22 15:21:04;;;;;;;;;;;;;;;;;;5065198;28;19916;-53
2023/10/22 15:23:31;;;;;;;;;;;;;;;;;;5067373;28;19943;-53
2023/10/22 15:25:57;;;;;;;;;;;;;;;;;;5065833;28;19912;-53
2023/10/22 15:28:23;;;;;;;;;;;;;;;;;;5065471;28;19915;-53
2023/10/22 15:30:49;;;;;;;;;;;;;;;;;;5064872;28;20007;-53
2023/10/22 15:33:16;;;;;;;;;;;;;;;;;;5065560;28;20431;-53
2023/10/22 15:35:42;;;;;;;;;;;;;;;;;;5066536;28;19969;-53
2023/10/22 15:38:08;;;;;;;;;;;;;;;;;;5070426;28;19908;-53
2023/10/22 15:40:34;;;;;;;;;;;;;;;;;;5066452;28;19951;-53
2023/10/22 15:43:00;;;;;;;;;;;;;;;;;;5066731;28;19912;-53
2023/10/22 15:45:29;;;;;;;;;;;;;;;;;;5065326;28;19968;-53
2023/10/22 15:47:55;;;;;;;;;;;;;;;;;;5066068;28;19912;-53
2023/10/22 15:50:21;;;;;;;;;;;;;;;;;;5065635;28;19916;-54
2023/10/22 15:52:47;;;;;;;;;;;;;;;;;;5064706;28;20288;-53
2023/10/22 15:55:14;;;;;;;;;;;;;;;;;;5066456;28;20387;-53
2023/10/22 15:57:40;;;;;;;;;;;;;;;;;;5067111;28;19961;-53
2023/10/22 16:00:07;;;;;;;;;;;;;;;;;;5067033;28;19908;-53
2023/10/22 16:02:33;;;;;;;;;;;;;;;;;;5061731;28;19953;-56
2023/10/22 16:05:03;;;;;;;;;;;;;;;;;;5065661;28;19916;-52
2023/10/22 16:07:29;;;;;;;;;;;;;;;;;;5066217;28;19912;-52
2023/10/22 16:09:55;;;;;;;;;;;;;;;;;;5065379;28;20449;-52
2023/10/22 16:12:22;;;;;;;;;;;;;;;;;;5070318;28;20030;-53
2023/10/22 16:14:48;;;;;;;;;;;;;;;;;;5070248;28;19922;-52
2023/10/22 16:17:14;;;;;;;;;;;;;;;;;;5063612;28;19909;-52
2023/10/22 16:19:40;;;;;;;;;;;;;;;;;;5058405;28;19932;-52
2023/10/22 16:22:06;;;;;;;;;;;;;;;;;;5066714;28;20316;-52
2023/10/22 16:24:32;;;;;;;;;;;;;;;;;;5065476;28;20010;-52
2023/10/22 16:26:58;;;;;;;;;;;;;;;;;;5062482;28;19948;-52
2023/10/22 16:29:24;;;;;;;;;;;;;;;;;;5068205;28;19935;-51
2023/10/22 16:31:50;;;;;;;;;;;;;;;;;;5068711;28;20277;-51
2023/10/22 16:34:16;;;;;;;;;;;;;;;;;;5074277;28;20081;-51
2023/10/22 16:36:42;;;;;;;;;;;;;;;;;;5067889;28;19947;-51
2023/10/22 16:39:08;;;;;;;;;;;;;;;;;;5068986;28;20426;-50